Time;durP1;ratioP1;P1;durP2;ratioP2;P2;SDS_P1;SDS_P2;PMS_P1;PMS_P2;Temp;Humidity;BMP_temperature;BMP_pressure;BME280_temperature;BME280_humidity;BME280_pressure;Samples;Min_cycle;Max_cycle;Signal;HPM_P1;HPM_P2
2022/01/08 00:01:30;;;;;;;17.48;10.07;;;-0.40;74.80;;;;;;5072333;28;20054;-68
2022/01/08 00:03:56;;;;;;;19.15;10.20;;;-0.40;74.70;;;;;;5071919;28;20065;-68
2022/01/08 00:06:22;;;;;;;20.50;10.00;;;-0.40;74.80;;;;;;5072372;28;20033;-68
2022/01/08 00:08:49;;;;;;;19.27;9.32;;;-0.40;74.70;;;;;;5071878;28;20060;-68
2022/01/08 00:11:18;;;;;;;18.48;9.57;;;-0.40;74.70;;;;;;5072358;28;20029;-68
2022/01/08 00:13:44;;;;;;;17.42;9.45;;;-0.40;74.70;;;;;;5072334;28;20082;-68
2022/01/08 00:16:33;;;;;;;16.45;9.68;;;-0.40;74.50;;;;;;5071923;28;20484;-68
2022/01/08 00:18:59;;;;;;;17.67;9.63;;;-0.50;74.60;;;;;;5071497;28;20457;-68
2022/01/08 00:21:24;;;;;;;20.27;9.40;;;-0.50;74.30;;;;;;5072592;28;20035;-69
2022/01/08 00:23:50;;;;;;;17.02;9.48;;;-0.50;74.70;;;;;;5071490;28;20381;-68
2022/01/08 00:26:16;;;;;;;16.55;9.18;;;-0.50;74.90;;;;;;5072234;28;20031;-68
2022/01/08 00:28:42;;;;;;;18.77;10.02;;;-0.50;75.10;;;;;;5071892;28;20037;-69
2022/01/08 00:31:10;;;;;;;20.40;10.05;;;-0.50;75.50;;;;;;5071753;28;20036;-68
2022/01/08 00:33:37;;;;;;;14.90;9.73;;;-0.50;75.60;;;;;;5072244;28;20020;-69
2022/01/08 00:36:04;;;;;;;17.75;9.05;;;-0.50;75.60;;;;;;5071534;28;20033;-69
2022/01/08 00:38:30;;;;;;;16.23;9.05;;;-0.50;75.70;;;;;;5071853;28;20037;-69
2022/01/08 00:40:56;;;;;;;19.02;9.07;;;-0.50;75.30;;;;;;5071400;28;20443;-68
2022/01/08 00:43:21;;;;;;;15.38;9.45;;;-0.40;75.60;;;;;;5072166;28;20052;-68
2022/01/08 00:45:47;;;;;;;18.83;8.75;;;-0.40;75.40;;;;;;5071942;28;20480;-69
2022/01/08 00:48:13;;;;;;;16.40;9.45;;;-0.40;75.40;;;;;;5072019;28;20032;-68
2022/01/08 00:50:39;;;;;;;18.77;9.82;;;-0.30;75.40;;;;;;5071791;28;20473;-68
2022/01/08 00:53:05;;;;;;;17.17;9.20;;;-0.30;75.10;;;;;;5075152;28;20051;-68
2022/01/08 00:55:31;;;;;;;18.45;9.40;;;-0.30;75.30;;;;;;5075802;28;20059;-68
2022/01/08 00:57:56;;;;;;;18.92;8.80;;;-0.30;74.60;;;;;;5075579;28;20496;-70
2022/01/08 01:00:22;;;;;;;19.15;9.02;;;-0.20;74.70;;;;;;5075444;28;20032;-69
2022/01/08 01:02:48;;;;;;;17.73;9.05;;;-0.20;74.30;;;;;;5075540;28;20115;-69
2022/01/08 01:05:14;;;;;;;15.90;8.48;;;-0.20;74.20;;;;;;5075744;28;20104;-68
2022/01/08 01:07:40;;;;;;;15.10;8.52;;;-0.20;74.30;;;;;;5075396;28;20533;-68
2022/01/08 01:10:07;;;;;;;21.25;9.38;;;-0.20;73.80;;;;;;5057136;28;20116;-68
2022/01/08 01:12:33;;;;;;;17.13;8.70;;;-0.20;73.50;;;;;;5075252;28;20025;-68
2022/01/08 01:14:59;;;;;;;17.50;10.00;;;-0.10;73.90;;;;;;5074936;28;20025;-69
2022/01/08 01:17:24;;;;;;;16.73;9.13;;;-0.10;73.80;;;;;;5075193;28;20481;-68
2022/01/08 01:19:50;;;;;;;17.85;9.57;;;-0.10;74.20;;;;;;5074560;28;20024;-68
2022/01/08 01:22:19;;;;;;;16.02;8.73;;;-0.10;74.50;;;;;;5075384;28;20024;-68
2022/01/08 01:24:46;;;;;;;17.70;9.30;;;-0.10;74.60;;;;;;5074847;28;20029;-69
2022/01/08 01:30:01;;;;;;;15.32;8.50;;;-0.10;73.90;;;;;;5075271;28;20097;-69
2022/01/08 01:43:36;;;;;;;12.55;8.10;;;0.00;73.60;;;;;;5074759;28;20114;-69
2022/01/08 01:48:46;;;;;;;15.98;9.07;;;0.00;72.90;;;;;;5074860;28;20031;-68
2022/01/08 01:51:23;;;;;;;17.23;8.73;;;0.00;72.60;;;;;;5074185;28;20025;-68
2022/01/08 01:53:50;;;;;;;15.80;8.95;;;0.10;73.00;;;;;;5074498;28;20480;-70
2022/01/08 01:56:20;;;;;;;18.30;9.68;;;0.10;72.60;;;;;;5074226;28;20063;-68
2022/01/08 01:58:46;;;;;;;16.48;9.10;;;0.10;72.50;;;;;;5075093;28;20020;-68
2022/01/08 02:01:12;;;;;;;14.80;8.40;;;0.10;72.70;;;;;;5073878;28;20473;-68
2022/01/08 02:03:39;;;;;;;16.77;8.95;;;0.10;72.50;;;;;;5073802;28;20040;-68
2022/01/08 02:06:05;;;;;;;13.45;9.35;;;0.10;73.10;;;;;;5073448;28;20085;-68
2022/01/08 02:08:31;;;;;;;19.23;9.18;;;0.10;72.10;;;;;;5074037;28;20060;-68
2022/01/08 02:10:57;;;;;;;18.73;9.38;;;0.10;72.00;;;;;;5073460;28;20024;-67
2022/01/08 02:13:25;;;;;;;15.15;8.70;;;0.10;71.80;;;;;;5073898;28;20040;-69
2022/01/08 02:15:53;;;;;;;17.38;9.32;;;0.10;72.20;;;;;;5074046;28;20029;-68
2022/01/08 02:18:23;;;;;;;16.20;8.80;;;0.00;72.10;;;;;;5073794;28;20103;-69
2022/01/08 02:20:48;;;;;;;16.25;8.65;;;0.00;71.90;;;;;;5073510;28;20037;-68
2022/01/08 02:23:14;;;;;;;18.58;8.38;;;0.00;71.80;;;;;;5073216;28;20020;-68
2022/01/08 02:25:40;;;;;;;15.18;8.88;;;0.00;72.40;;;;;;5073575;28;20033;-68
2022/01/08 02:28:06;;;;;;;17.73;9.40;;;-0.10;72.20;;;;;;5072490;28;20043;-69
2022/01/08 02:30:32;;;;;;;20.25;10.18;;;-0.10;72.70;;;;;;5081227;28;20084;-69
2022/01/08 02:32:59;;;;;;;17.48;10.68;;;-0.10;72.70;;;;;;5074989;28;20028;-69
2022/01/08 02:35:25;;;;;;;14.95;9.48;;;0.00;72.50;;;;;;5073978;28;20054;-68
2022/01/08 02:37:53;;;;;;;18.02;9.70;;;-0.10;72.40;;;;;;5073390;28;20024;-68
2022/01/08 02:40:19;;;;;;;14.75;8.68;;;-0.10;72.40;;;;;;5073307;28;20029;-68
2022/01/08 02:42:51;;;;;;;18.63;9.10;;;-0.10;72.00;;;;;;5074476;28;20429;-69
2022/01/08 02:45:17;;;;;;;16.58;7.43;;;-0.10;72.20;;;;;;5074212;28;20032;-69
2022/01/08 02:47:45;;;;;;;18.48;8.88;;;-0.10;71.90;;;;;;5073777;28;20154;-68
2022/01/08 02:50:11;;;;;;;18.77;9.13;;;-0.10;72.00;;;;;;5073010;28;20465;-69
2022/01/08 02:52:44;;;;;;;15.60;10.07;;;-0.10;72.50;;;;;;5072798;28;20362;-69
2022/01/08 02:55:13;;;;;;;14.90;8.60;;;-0.10;72.50;;;;;;5072617;28;20412;-69
2022/01/08 02:57:38;;;;;;;17.10;9.07;;;-0.10;72.20;;;;;;5072776;28;20108;-69
2022/01/08 03:00:07;;;;;;;14.73;9.73;;;-0.20;72.50;;;;;;5072721;28;20428;-68
2022/01/08 03:02:33;;;;;;;14.35;8.60;;;-0.10;73.20;;;;;;5072748;28;20453;-68
2022/01/08 03:04:59;;;;;;;18.85;9.75;;;-0.20;72.90;;;;;;5072397;28;20032;-68
2022/01/08 03:07:24;;;;;;;14.35;9.20;;;-0.20;72.90;;;;;;5073187;28;20033;-68
2022/01/08 03:09:56;;;;;;;14.82;9.23;;;-0.10;73.20;;;;;;5073244;28;20028;-68
2022/01/08 03:12:26;;;;;;;16.95;9.35;;;-0.10;73.00;;;;;;5073155;28;20077;-68
2022/01/08 03:14:52;;;;;;;15.75;9.30;;;-0.10;72.80;;;;;;5072012;28;20029;-69
2022/01/08 03:17:18;;;;;;;14.77;8.65;;;0.00;72.90;;;;;;5072731;28;20040;-68
2022/01/08 03:19:44;;;;;;;18.30;9.32;;;0.00;72.60;;;;;;5054998;28;20036;-68
2022/01/08 03:22:10;;;;;;;17.60;9.20;;;0.00;72.40;;;;;;5072438;28;20117;-69
2022/01/08 03:24:36;;;;;;;16.55;10.20;;;0.00;72.60;;;;;;5073121;28;20029;-68
2022/01/08 03:27:02;;;;;;;20.38;9.52;;;0.00;72.40;;;;;;5054557;28;20058;-68
2022/01/08 03:29:28;;;;;;;14.48;9.13;;;0.00;72.40;;;;;;5072937;28;20115;-68
2022/01/08 03:31:54;;;;;;;13.35;8.98;;;0.00;72.50;;;;;;5072938;28;20083;-68
2022/01/08 03:34:20;;;;;;;16.70;9.07;;;0.00;72.80;;;;;;5073233;28;20032;-69
2022/01/08 03:36:46;;;;;;;13.50;8.70;;;0.00;72.10;;;;;;5055253;28;20361;-68
2022/01/08 03:39:12;;;;;;;16.83;9.27;;;0.00;72.30;;;;;;5072365;28;20102;-68
2022/01/08 03:41:37;;;;;;;14.30;8.93;;;0.00;71.90;;;;;;5054923;28;20060;-68
2022/01/08 03:44:04;;;;;;;17.33;9.52;;;0.00;72.00;;;;;;5072593;28;20089;-68
2022/01/08 03:46:34;;;;;;;15.63;9.23;;;0.00;72.30;;;;;;5072700;28;20028;-68
2022/01/08 03:51:25;;;;;;;16.00;8.95;;;-0.10;72.30;;;;;;5072646;28;20457;-68
2022/01/08 03:53:51;;;;;;;18.77;9.38;;;-0.10;72.70;;;;;;5072683;28;20053;-68
2022/01/08 03:56:17;;;;;;;18.42;8.88;;;0.00;73.10;;;;;;5071790;28;20060;-68
2022/01/08 03:58:42;;;;;;;23.92;9.38;;;0.00;73.00;;;;;;5072611;28;20032;-68
2022/01/08 04:01:08;;;;;;;15.50;8.57;;;0.00;72.70;;;;;;5071812;28;20033;-68
2022/01/08 04:03:33;;;;;;;15.32;8.23;;;0.00;72.70;;;;;;5072541;28;20029;-68
2022/01/08 04:05:59;;;;;;;14.25;9.10;;;0.00;72.70;;;;;;5071943;28;20063;-68
2022/01/08 04:08:25;;;;;;;14.25;7.90;;;0.10;72.40;;;;;;5072500;28;20033;-68
2022/01/08 04:10:51;;;;;;;16.98;9.20;;;0.00;72.00;;;;;;5072140;28;20067;-68
2022/01/08 04:13:24;;;;;;;18.60;9.05;;;0.00;72.00;;;;;;5071903;28;20263;-68
2022/01/08 04:15:54;;;;;;;14.85;8.07;;;0.00;72.60;;;;;;5072523;28;20469;-69
2022/01/08 04:18:20;;;;;;;15.88;9.40;;;0.00;72.90;;;;;;5072199;28;20029;-68
2022/01/08 04:23:30;;;;;;;16.73;8.38;;;0.00;72.90;;;;;;5072395;28;20075;-68
2022/01/08 04:25:56;;;;;;;13.77;8.88;;;0.00;72.40;;;;;;5072815;28;20040;-68
2022/01/08 04:28:22;;;;;;;15.60;8.65;;;0.00;72.90;;;;;;5075851;28;20032;-68
2022/01/08 04:30:48;;;;;;;15.75;8.15;;;0.00;74.00;;;;;;5076709;28;20029;-68
2022/01/08 04:33:13;;;;;;;16.48;9.50;;;0.00;73.30;;;;;;5075802;28;20032;-68
2022/01/08 04:35:39;;;;;;;15.20;8.85;;;0.00;73.90;;;;;;5076015;28;20028;-68
2022/01/08 04:38:05;;;;;;;17.65;8.73;;;-0.10;74.10;;;;;;5075688;28;20356;-68
2022/01/08 04:40:32;;;;;;;13.38;8.57;;;0.00;74.60;;;;;;5076342;28;20056;-68
2022/01/08 04:42:59;;;;;;;16.98;8.98;;;0.00;74.50;;;;;;5076002;28;20025;-68
2022/01/08 04:45:29;;;;;;;16.23;9.10;;;0.00;75.00;;;;;;5076217;28;20401;-68
2022/01/08 04:47:55;;;;;;;16.45;9.02;;;0.00;75.20;;;;;;5075983;28;20041;-68
2022/01/08 04:50:21;;;;;;;13.90;8.35;;;0.00;75.20;;;;;;5075519;28;20178;-68
2022/01/08 04:52:46;;;;;;;13.65;8.75;;;-0.10;75.40;;;;;;5075640;28;20058;-69
2022/01/08 04:55:12;;;;;;;14.68;8.48;;;0.00;75.70;;;;;;5075306;28;20473;-68
2022/01/08 04:57:38;;;;;;;13.93;8.40;;;0.00;76.00;;;;;;5075540;28;20035;-68
2022/01/08 05:00:04;;;;;;;15.05;8.70;;;0.00;75.60;;;;;;5075339;28;20028;-69
2022/01/08 05:02:30;;;;;;;15.38;9.07;;;0.00;75.70;;;;;;5075388;28;20065;-68
2022/01/08 05:04:56;;;;;;;16.52;9.30;;;0.00;76.00;;;;;;5075637;28;20025;-68
2022/01/08 05:07:21;;;;;;;16.20;8.93;;;-0.10;76.20;;;;;;5075001;28;20111;-69
2022/01/08 05:09:47;;;;;;;17.17;9.00;;;0.00;76.40;;;;;;5075630;28;20031;-69
2022/01/08 05:12:13;;;;;;;15.63;8.85;;;-0.10;76.20;;;;;;5075368;28;20108;-68
2022/01/08 05:14:39;;;;;;;13.95;8.52;;;0.00;76.40;;;;;;5075441;28;20377;-67
2022/01/08 05:17:04;;;;;;;14.13;9.50;;;-0.10;76.80;;;;;;5074852;28;20154;-67
2022/01/08 05:19:47;;;;;;;17.55;9.93;;;-0.10;77.10;;;;;;5074990;28;20032;-69
2022/01/08 05:22:23;;;;;;;19.00;10.38;;;-0.10;77.10;;;;;;5074911;28;20397;-68
2022/01/08 05:24:49;;;;;;;15.60;9.88;;;-0.10;77.70;;;;;;5075310;28;20031;-68
2022/01/08 05:27:17;;;;;;;16.42;9.90;;;-0.10;77.80;;;;;;5074644;28;20036;-67
2022/01/08 05:29:47;;;;;;;16.27;9.20;;;-0.10;78.20;;;;;;5075189;28;20036;-69
2022/01/08 05:32:16;;;;;;;15.38;9.45;;;-0.10;78.80;;;;;;5074809;28;20476;-69
2022/01/08 05:34:48;;;;;;;17.45;9.55;;;-0.20;78.80;;;;;;5075553;28;20082;-69
2022/01/08 05:37:15;;;;;;;18.23;10.18;;;-0.20;79.40;;;;;;5073701;28;20032;-69
2022/01/08 05:39:41;;;;;;;18.67;10.18;;;-0.20;79.70;;;;;;5074518;28;20044;-69
2022/01/08 05:42:07;;;;;;;20.08;11.50;;;-0.20;80.40;;;;;;5074870;28;20025;-69
2022/01/08 05:44:33;;;;;;;18.75;10.50;;;-0.20;81.10;;;;;;5074801;28;20443;-69
2022/01/08 05:47:00;;;;;;;17.42;11.05;;;-0.20;81.80;;;;;;5074575;28;20541;-69
2022/01/08 05:49:25;;;;;;;24.80;11.75;;;-0.30;81.80;;;;;;5074898;28;20029;-70
2022/01/08 05:51:51;;;;;;;19.45;11.82;;;-0.30;82.30;;;;;;5077450;28;20035;-69
2022/01/08 05:54:17;;;;;;;17.33;11.30;;;-0.30;82.70;;;;;;5075183;28;20032;-69
2022/01/08 05:56:43;;;;;;;18.48;11.00;;;-0.30;83.70;;;;;;5076025;28;20111;-69
2022/01/08 05:59:08;;;;;;;19.33;11.13;;;-0.30;84.60;;;;;;5074941;28;20031;-69
2022/01/08 06:01:34;;;;;;;21.23;11.35;;;-0.30;85.20;;;;;;5077921;28;20111;-70
2022/01/08 06:04:03;;;;;;;17.83;10.90;;;-0.30;85.60;;;;;;5076442;28;20036;-69
2022/01/08 06:06:29;;;;;;;21.02;11.63;;;-0.40;85.20;;;;;;5076434;28;20029;-69
2022/01/08 06:08:54;;;;;;;16.80;11.57;;;-0.40;85.90;;;;;;5075381;28;20029;-69
2022/01/08 06:11:20;;;;;;;20.95;11.35;;;-0.40;86.50;;;;;;5074292;28;20510;-68
2022/01/08 06:13:46;;;;;;;20.23;11.63;;;-0.40;87.30;;;;;;5074812;28;20404;-68
2022/01/08 06:16:12;;;;;;;18.63;10.80;;;-0.40;87.80;;;;;;5073856;28;20028;-69
2022/01/08 06:18:39;;;;;;;20.52;11.38;;;-0.40;87.70;;;;;;5074408;28;20082;-68
2022/01/08 06:21:05;;;;;;;20.55;11.10;;;-0.40;88.00;;;;;;5074042;28;20028;-67
2022/01/08 06:23:30;;;;;;;18.15;10.70;;;-0.40;88.60;;;;;;5073706;28;20032;-68
2022/01/08 06:25:56;;;;;;;19.15;10.68;;;-0.40;88.60;;;;;;5074484;28;20492;-69
2022/01/08 06:28:22;;;;;;;24.27;12.32;;;-0.40;89.20;;;;;;5073500;28;20028;-69
2022/01/08 06:30:48;;;;;;;17.30;11.05;;;-0.40;89.60;;;;;;5074463;28;20115;-69
2022/01/08 06:33:18;;;;;;;18.13;11.05;;;-0.40;89.50;;;;;;5073476;28;20035;-69
2022/01/08 06:35:44;;;;;;;20.67;10.77;;;-0.40;90.00;;;;;;5074034;28;20032;-69
2022/01/08 06:38:10;;;;;;;18.40;10.90;;;-0.40;90.00;;;;;;5073594;28;20086;-68
2022/01/08 06:40:36;;;;;;;17.92;10.63;;;-0.40;90.10;;;;;;5074197;28;20028;-69
2022/01/08 06:43:01;;;;;;;17.67;10.63;;;-0.40;90.10;;;;;;5073611;28;20024;-69
2022/01/08 06:45:27;;;;;;;17.52;11.23;;;-0.30;90.00;;;;;;5073020;28;20111;-68
2022/01/08 06:47:53;;;;;;;16.15;10.90;;;-0.30;89.80;;;;;;5073616;28;20076;-68
2022/01/08 06:50:19;;;;;;;21.40;11.82;;;-0.40;89.70;;;;;;5073203;28;20466;-68
2022/01/08 06:52:44;;;;;;;19.85;11.85;;;-0.40;89.60;;;;;;5073419;28;20477;-68
2022/01/08 06:55:10;;;;;;;20.42;12.25;;;-0.40;90.00;;;;;;5072821;28;20049;-67
2022/01/08 06:57:36;;;;;;;21.05;12.20;;;-0.40;90.10;;;;;;5073537;28;20021;-68
2022/01/08 07:00:04;;;;;;;19.20;12.07;;;-0.50;89.90;;;;;;5073761;28;20068;-69
2022/01/08 07:02:30;;;;;;;22.23;11.77;;;-0.40;90.60;;;;;;5072992;28;20289;-68
2022/01/08 07:04:55;;;;;;;21.15;12.25;;;-0.40;90.50;;;;;;5073436;28;20028;-68
2022/01/08 07:07:21;;;;;;;17.73;11.27;;;-0.50;90.30;;;;;;5072442;28;20116;-68
2022/01/08 07:09:47;;;;;;;22.95;12.55;;;-0.50;90.20;;;;;;5073037;28;20044;-68
2022/01/08 07:12:13;;;;;;;22.42;12.30;;;-0.50;90.70;;;;;;5072822;28;20020;-68
2022/01/08 07:14:38;;;;;;;18.20;10.85;;;-0.40;90.80;;;;;;5073185;28;20029;-68
2022/01/08 07:17:04;;;;;;;21.58;12.75;;;-0.40;90.90;;;;;;5073260;28;20093;-68
2022/01/08 07:19:30;;;;;;;19.17;11.80;;;-0.40;90.90;;;;;;5072689;28;20407;-69
2022/01/08 07:21:55;;;;;;;21.67;12.05;;;-0.40;90.90;;;;;;5073056;28;20024;-68
2022/01/08 07:24:21;;;;;;;22.13;12.23;;;-0.40;91.00;;;;;;5072860;28;20089;-69
2022/01/08 07:26:47;;;;;;;21.13;12.15;;;-0.40;91.00;;;;;;5072865;28;20068;-69
2022/01/08 07:29:13;;;;;;;20.63;12.05;;;-0.40;91.10;;;;;;5054719;28;20033;-69
2022/01/08 07:31:38;;;;;;;23.02;11.82;;;-0.40;91.20;;;;;;5072774;28;20054;-68
2022/01/08 07:34:04;;;;;;;22.00;12.82;;;-0.40;91.00;;;;;;5072653;28;20032;-69
2022/01/08 07:36:29;;;;;;;19.70;11.82;;;-0.40;91.10;;;;;;5072351;28;20033;-67
2022/01/08 07:38:55;;;;;;;19.45;12.20;;;-0.40;91.40;;;;;;5072617;28;20032;-68
2022/01/08 07:41:21;;;;;;;19.13;11.57;;;-0.40;91.60;;;;;;5072253;28;20021;-68
2022/01/08 07:43:46;;;;;;;20.23;11.32;;;-0.30;91.60;;;;;;5054828;28;20032;-68
2022/01/08 07:46:12;;;;;;;19.67;11.98;;;-0.30;91.20;;;;;;5071804;28;20036;-69
2022/01/08 07:48:40;;;;;;;20.80;11.60;;;-0.30;91.10;;;;;;5072897;28;20040;-69
2022/01/08 07:51:06;;;;;;;19.75;11.73;;;-0.40;90.70;;;;;;5072380;28;20063;-69
2022/01/08 07:53:31;;;;;;;21.13;10.98;;;-0.40;91.20;;;;;;5072095;28;20064;-69
2022/01/08 07:55:57;;;;;;;20.50;11.75;;;-0.40;91.00;;;;;;5071939;28;20404;-69
2022/01/08 07:58:23;;;;;;;21.23;11.57;;;-0.30;90.90;;;;;;5072326;28;20028;-68
2022/01/08 08:01:07;;;;;;;20.38;11.85;;;-0.40;91.00;;;;;;5072046;28;20028;-68
2022/01/08 08:03:33;;;;;;;22.15;11.35;;;-0.30;91.30;;;;;;5071694;28;20385;-68
2022/01/08 08:05:58;;;;;;;20.92;11.55;;;-0.30;91.50;;;;;;5072525;28;20035;-69
2022/01/08 08:08:24;;;;;;;21.58;11.70;;;-0.20;91.30;;;;;;5072144;28;20032;-68
2022/01/08 08:10:51;;;;;;;18.48;11.30;;;-0.20;91.00;;;;;;5076340;28;20031;-69
2022/01/08 08:13:18;;;;;;;21.33;11.48;;;-0.20;90.90;;;;;;5075923;28;20032;-68
2022/01/08 08:15:44;;;;;;;18.65;11.82;;;-0.10;91.10;;;;;;5075242;28;20028;-69
2022/01/08 08:18:11;;;;;;;18.10;11.40;;;-0.10;91.30;;;;;;5073058;28;20031;-68
2022/01/08 08:20:37;;;;;;;19.98;11.85;;;0.00;91.20;;;;;;5071747;28;20033;-68
2022/01/08 08:23:03;;;;;;;17.83;10.98;;;0.00;90.90;;;;;;5072153;28;20025;-68
2022/01/08 08:25:29;;;;;;;19.45;11.73;;;0.10;90.80;;;;;;5073399;28;20082;-69
2022/01/08 08:27:55;;;;;;;21.35;12.07;;;0.10;90.50;;;;;;5073629;28;20104;-68
2022/01/08 08:30:21;;;;;;;18.50;11.07;;;0.10;90.30;;;;;;5071977;28;20111;-68
2022/01/08 08:32:47;;;;;;;21.55;11.48;;;0.20;90.30;;;;;;5071840;28;20467;-69
2022/01/08 08:35:14;;;;;;;19.50;11.32;;;0.30;90.40;;;;;;5071634;28;20107;-68
2022/01/08 08:37:40;;;;;;;19.75;11.15;;;0.30;90.10;;;;;;5071688;28;20412;-68
2022/01/08 08:40:08;;;;;;;21.75;11.43;;;0.30;89.40;;;;;;5072072;28;20115;-69
2022/01/08 08:42:34;;;;;;;20.33;10.60;;;0.40;89.60;;;;;;5052989;28;20542;-69
2022/01/08 08:45:00;;;;;;;19.13;11.35;;;0.30;88.90;;;;;;5071830;28;20120;-69
2022/01/08 08:47:26;;;;;;;18.88;11.63;;;0.40;88.90;;;;;;5070945;28;20024;-69
2022/01/08 08:50:12;;;;;;;23.13;11.68;;;0.50;88.20;;;;;;5071998;28;20119;-69
2022/01/08 08:52:37;;;;;;;18.77;11.02;;;0.50;87.30;;;;;;5071420;28;20104;-70
2022/01/08 08:55:05;;;;;;;17.05;10.77;;;0.50;87.60;;;;;;5053692;28;20075;-69
2022/01/08 08:57:30;;;;;;;17.70;11.40;;;0.50;88.30;;;;;;5071246;28;20119;-69
2022/01/08 08:59:56;;;;;;;16.35;10.95;;;0.60;89.10;;;;;;5072095;28;20071;-68
2022/01/08 09:02:22;;;;;;;19.38;11.23;;;0.70;89.40;;;;;;5071909;28;20407;-69
2022/01/08 09:07:36;;;;;;;21.35;10.95;;;0.80;88.20;;;;;;5070979;28;20075;-68
2022/01/08 09:10:03;;;;;;;19.38;10.43;;;0.90;86.60;;;;;;5071808;28;20024;-68
2022/01/08 09:12:29;;;;;;;19.00;10.20;;;0.90;86.00;;;;;;5073394;28;20039;-69
2022/01/08 09:14:55;;;;;;;20.35;10.52;;;0.90;85.60;;;;;;5076073;28;20111;-68
2022/01/08 09:17:21;;;;;;;17.55;9.90;;;0.90;85.60;;;;;;5074924;28;20035;-69
2022/01/08 09:19:47;;;;;;;19.70;10.40;;;0.90;85.20;;;;;;5075181;28;20422;-69
2022/01/08 09:22:13;;;;;;;17.55;10.25;;;1.00;85.00;;;;;;5075687;28;20024;-69
2022/01/08 09:24:40;;;;;;;17.40;10.65;;;1.00;85.00;;;;;;5074838;28;20035;-69
2022/01/08 09:27:05;;;;;;;18.73;10.70;;;1.00;83.80;;;;;;5075197;28;20056;-69
2022/01/08 09:29:31;;;;;;;15.77;9.60;;;1.00;83.60;;;;;;5075118;28;20534;-69
2022/01/08 09:31:57;;;;;;;14.10;10.32;;;1.00;83.40;;;;;;5075263;28;20099;-69
2022/01/08 09:34:23;;;;;;;19.83;10.35;;;1.00;82.90;;;;;;5074973;28;20020;-70
2022/01/08 09:36:49;;;;;;;18.35;10.05;;;1.00;82.60;;;;;;5074839;28;20123;-69
2022/01/08 09:39:15;;;;;;;19.92;10.60;;;1.00;82.50;;;;;;5075057;28;20491;-69
2022/01/08 09:41:41;;;;;;;16.63;10.18;;;1.00;82.70;;;;;;5075041;28;20417;-69
2022/01/08 09:44:07;;;;;;;16.67;10.23;;;1.00;82.60;;;;;;5075054;28;20020;-69
2022/01/08 09:46:33;;;;;;;19.77;9.75;;;1.00;83.20;;;;;;5074412;28;20114;-69
2022/01/08 09:48:59;;;;;;;14.80;10.05;;;1.00;83.10;;;;;;5075178;28;20028;-69
2022/01/08 09:51:26;;;;;;;17.42;10.75;;;1.00;83.10;;;;;;5074802;28;20033;-68
2022/01/08 09:53:52;;;;;;;17.02;10.15;;;1.00;83.20;;;;;;5074595;28;20028;-70
2022/01/08 09:56:18;;;;;;;16.77;10.02;;;1.00;83.50;;;;;;5074926;28;20064;-71
2022/01/08 09:58:44;;;;;;;17.33;10.25;;;1.10;83.50;;;;;;5075233;28;20028;-69
2022/01/08 10:01:29;;;;;;;16.92;9.55;;;1.10;83.10;;;;;;5074455;28;20542;-69
2022/01/08 10:03:58;;;;;;;18.92;10.60;;;1.20;82.60;;;;;;5074648;28;20052;-69
2022/01/08 10:06:27;;;;;;;17.80;10.40;;;1.20;82.80;;;;;;5074100;28;20074;-69
2022/01/08 10:08:53;;;;;;;18.67;9.93;;;1.20;82.30;;;;;;5074561;28;20489;-70
2022/01/08 10:11:21;;;;;;;16.88;10.40;;;1.30;81.70;;;;;;5074264;28;20055;-69
2022/01/08 10:13:51;;;;;;;21.05;10.32;;;1.30;81.10;;;;;;5074717;28;20101;-69
2022/01/08 10:19:15;;;;;;;15.75;9.20;;;1.20;80.70;;;;;;5075073;28;20050;-68
2022/01/08 10:21:43;;;;;;;15.75;9.95;;;1.20;81.50;;;;;;5074397;28;20028;-69
2022/01/08 10:24:10;;;;;;;19.55;10.30;;;1.20;81.20;;;;;;5074536;28;20021;-70
2022/01/08 10:26:38;;;;;;;20.70;11.27;;;1.20;81.20;;;;;;5074441;28;20036;-69
2022/01/08 10:29:07;;;;;;;17.42;10.80;;;1.20;81.40;;;;;;5074562;28;20025;-69
2022/01/08 10:31:34;;;;;;;17.95;10.73;;;1.20;81.10;;;;;;5074335;28;20060;-70
2022/01/08 10:34:03;;;;;;;19.85;11.05;;;1.20;81.30;;;;;;5075526;28;20029;-69
2022/01/08 10:36:33;;;;;;;17.10;10.43;;;1.20;81.70;;;;;;5074207;28;20028;-69
2022/01/08 10:39:02;;;;;;;16.63;9.88;;;1.20;81.80;;;;;;5074644;28;20462;-69
2022/01/08 10:41:29;;;;;;;20.02;11.30;;;1.20;82.00;;;;;;5074146;28;20112;-68
2022/01/08 10:44:11;;;;;;;15.65;10.52;;;1.20;82.20;;;;;;5056157;28;20434;-69
2022/01/08 10:46:39;;;;;;;19.08;10.30;;;1.20;82.30;;;;;;5074053;28;20025;-70
2022/01/08 10:49:05;;;;;;;16.13;10.57;;;1.20;82.80;;;;;;5073646;28;20025;-69
2022/01/08 10:51:37;;;;;;;16.55;9.88;;;1.20;82.60;;;;;;5073285;28;20517;-69
2022/01/08 10:54:08;;;;;;;18.58;10.48;;;1.20;82.50;;;;;;5073425;28;20024;-68
2022/01/08 10:56:38;;;;;;;19.15;10.30;;;1.20;82.80;;;;;;5073434;28;20463;-69
2022/01/08 10:59:08;;;;;;;18.40;10.90;;;1.30;82.40;;;;;;5073635;28;20089;-68
2022/01/08 11:01:44;;;;;;;20.38;10.80;;;1.30;81.90;;;;;;5073065;28;20489;-69
2022/01/08 11:04:13;;;;;;;19.33;10.50;;;1.30;82.10;;;;;;5073598;28;20056;-69
2022/01/08 11:06:50;;;;;;;16.80;11.25;;;1.20;82.50;;;;;;5073224;28;20032;-70
2022/01/08 11:09:15;;;;;;;23.45;10.75;;;1.20;82.30;;;;;;5055356;28;20028;-69
2022/01/08 11:11:43;;;;;;;18.13;11.30;;;1.30;82.70;;;;;;5072668;28;20031;-70
2022/01/08 11:14:22;;;;;;;17.98;11.15;;;1.30;82.70;;;;;;5073412;28;20115;-69
2022/01/08 11:16:51;;;;;;;16.48;10.73;;;1.20;82.60;;;;;;5072823;28;20033;-69
2022/01/08 11:19:18;;;;;;;19.13;10.32;;;1.20;83.10;;;;;;5072883;28;20465;-69
2022/01/08 11:21:45;;;;;;;15.27;10.75;;;1.30;83.10;;;;;;5072686;28;20112;-69
2022/01/08 11:24:12;;;;;;;22.42;11.43;;;1.30;83.30;;;;;;5073316;28;20025;-69
2022/01/08 11:26:38;;;;;;;21.55;11.15;;;1.40;83.90;;;;;;5072109;28;20107;-69
2022/01/08 11:29:04;;;;;;;18.88;10.80;;;1.40;83.30;;;;;;5073033;28;20032;-69
2022/01/08 11:31:33;;;;;;;16.95;10.93;;;1.50;83.00;;;;;;5072256;28;20381;-69
2022/01/08 11:34:07;;;;;;;19.05;11.23;;;1.50;82.10;;;;;;5073791;28;20024;-69
2022/01/08 11:36:34;;;;;;;20.55;10.88;;;1.50;81.90;;;;;;5071601;28;20035;-68
2022/01/08 11:39:00;;;;;;;16.63;10.82;;;1.50;81.10;;;;;;5073159;28;20047;-69
2022/01/08 11:41:28;;;;;;;18.67;11.00;;;1.60;81.30;;;;;;5073294;28;20032;-69
2022/01/08 11:43:55;;;;;;;19.63;11.05;;;1.60;81.40;;;;;;5073976;28;20042;-70
2022/01/08 11:46:23;;;;;;;16.80;11.23;;;1.60;81.40;;;;;;5072715;28;20111;-68
2022/01/08 11:48:51;;;;;;;18.65;11.27;;;1.70;82.60;;;;;;5072142;28;20029;-69
2022/01/08 11:51:24;;;;;;;17.58;11.32;;;1.80;82.10;;;;;;5072342;28;20035;-69
2022/01/08 11:53:53;;;;;;;21.30;11.85;;;1.90;81.00;;;;;;5072176;28;20086;-69
2022/01/08 11:56:34;;;;;;;19.45;11.50;;;1.90;79.90;;;;;;5072697;28;20186;-68
2022/01/08 11:59:14;;;;;;;19.52;11.50;;;2.00;80.50;;;;;;5072336;28;20527;-69
2022/01/08 12:01:43;;;;;;;16.35;10.50;;;2.00;80.60;;;;;;5072095;28;20032;-69
2022/01/08 12:04:29;;;;;;;18.15;11.00;;;2.10;79.90;;;;;;5072707;28;20029;-68
2022/01/08 12:06:55;;;;;;;18.77;11.52;;;2.10;78.90;;;;;;5054428;28;20029;-70
2022/01/08 12:09:25;;;;;;;16.70;10.68;;;2.20;79.20;;;;;;5054506;28;20032;-69
2022/01/08 12:12:07;;;;;;;17.15;10.20;;;2.20;79.10;;;;;;5072107;28;20021;-70
2022/01/08 12:14:38;;;;;;;14.90;10.52;;;2.30;78.90;;;;;;5072035;28;20060;-71
2022/01/08 12:17:17;;;;;;;16.33;10.40;;;2.30;78.60;;;;;;5072157;28;20208;-71
2022/01/08 12:19:50;;;;;;;16.95;10.68;;;2.40;79.20;;;;;;5071834;28;20024;-69
2022/01/08 12:22:16;;;;;;;18.58;11.48;;;2.60;80.60;;;;;;5072645;28;20035;-70
2022/01/08 12:24:42;;;;;;;15.70;9.90;;;2.70;78.90;;;;;;5071450;28;20133;-69
2022/01/08 12:27:33;;;;;;;19.20;11.13;;;2.80;77.40;;;;;;5054475;28;20051;-70
2022/01/08 12:29:59;;;;;;;18.80;10.27;;;2.90;75.70;;;;;;5072282;28;20082;-69
2022/01/08 12:32:40;;;;;;;17.95;11.65;;;3.10;76.00;;;;;;5071856;28;20060;-70
2022/01/08 12:35:19;;;;;;;18.13;11.10;;;3.20;75.20;;;;;;5072277;28;20017;-70
2022/01/08 12:37:49;;;;;;;17.52;10.77;;;3.30;75.10;;;;;;5071555;28;20040;-70
2022/01/08 12:40:33;;;;;;;19.20;11.07;;;3.40;73.90;;;;;;5072489;28;20034;-72
2022/01/08 12:42:59;;;;;;;17.45;10.30;;;3.40;72.00;;;;;;5072694;28;20469;-71
2022/01/08 12:45:35;;;;;;;20.98;11.00;;;3.50;71.90;;;;;;5072680;28;20024;-71
2022/01/08 12:48:00;;;;;;;18.38;9.90;;;3.60;71.70;;;;;;5075003;28;20036;-71
2022/01/08 12:50:44;;;;;;;16.70;9.88;;;3.60;70.70;;;;;;5076328;28;20541;-71
2022/01/08 12:53:22;;;;;;;17.67;11.23;;;3.60;69.80;;;;;;5076454;28;20420;-71
2022/01/08 12:55:54;;;;;;;18.40;9.85;;;3.60;69.50;;;;;;5075677;28;20048;-70
2022/01/08 12:58:23;;;;;;;15.25;9.85;;;3.60;68.80;;;;;;5058004;28;20024;-70
2022/01/08 13:00:57;;;;;;;16.08;10.73;;;3.60;68.80;;;;;;5075474;28;20016;-70
2022/01/08 13:03:24;;;;;;;15.82;10.85;;;3.60;69.40;;;;;;5075616;28;20025;-69
2022/01/08 13:05:51;;;;;;;15.75;10.15;;;3.60;69.70;;;;;;5075132;28;20039;-70